Central Wisconsin Airport Mosinee US
ICAO: KCWA
IATA: CWA
Category: Medium
Scheduled Services: No

Elevation: 1277 ft
TransAlt. 18000 ft.

Airport Communications:
ATIS:127.45
AWOS 3:127.45
MINNEAPOLIS CNTR:124.4
CTAF:119.75
GND:121.9
GREEN BAY RDO:122.525
TWR:119.75
UNICOM:122.95

KCWA Zoom In..

Runways:

(A) RW 08 length 7648 ft width 150 ft
ILS 110.30 / hdg 77

(B) RW 17 length 6501 ft width 150 ft
---- / hdg 170

(C) RW 26 length 7648 ft width 150 ft
---- / hdg 257

(D) RW 35 length 6501 ft width 150 ft
ILS 110.90 / hdg 350

Location; KCWA
Day. 21 / Time. 23.45 Zulu
* Altimeter: 29.94
* Temperature: 04° c. 39.2°f.
* Wind from: 020° Speed 04 kn.
Dewpoint: -01° c.
Visibility: 10 Statute Miles.
Clouds: Broken 8500 ft.

KCWA 212345Z 02004KT 10SM BKN085 04/M01 A2994


Wind From 020°
Speed 04 kn.

jpsM music video
CHECK IT OUT

jpsM - It Moves..

 
jpsmedia.com for Web Design  worldairports.se 2018   terms of use